createdAt,value
2017-12-13T00:02:03.066Z,5.40
2017-12-13T00:04:31.081Z,6.43
2017-12-13T00:06:58.649Z,4.55
2017-12-13T00:09:26.158Z,5.55
2017-12-13T00:11:53.668Z,5.35
2017-12-13T00:14:21.755Z,5.60
2017-12-13T00:16:49.279Z,6.07
2017-12-13T00:19:17.581Z,6.45
2017-12-13T00:21:45.120Z,4.85
2017-12-13T00:24:12.624Z,6.18
2017-12-13T00:26:40.144Z,6.15
2017-12-13T00:29:07.686Z,5.82
2017-12-13T00:31:35.247Z,4.75
2017-12-13T00:34:02.735Z,4.95
2017-12-13T00:36:30.307Z,5.72
2017-12-13T00:38:58.331Z,5.32
2017-12-13T00:41:25.879Z,6.82
2017-12-13T00:43:53.445Z,5.43
2017-12-13T00:46:21.135Z,4.40
2017-12-13T00:48:48.648Z,4.28
2017-12-13T00:51:16.254Z,5.07
2017-12-13T00:53:44.063Z,6.10
2017-12-13T00:56:12.165Z,4.57
2017-12-13T00:58:39.727Z,4.78
2017-12-13T01:01:07.996Z,6.18
2017-12-13T01:03:35.499Z,4.00
2017-12-13T01:06:03.050Z,4.20
2017-12-13T01:08:30.563Z,5.18
2017-12-13T01:10:58.071Z,4.80
2017-12-13T01:13:25.725Z,4.22
2017-12-13T01:15:53.248Z,5.18
2017-12-13T01:18:21.284Z,6.15
2017-12-13T01:20:54.009Z,4.85
2017-12-13T01:23:22.315Z,4.90
2017-12-13T01:25:50.344Z,5.95
2017-12-13T01:28:18.263Z,6.12
2017-12-13T01:30:45.793Z,7.30
2017-12-13T01:33:13.356Z,5.82
2017-12-13T01:35:53.444Z,7.15
2017-12-13T01:38:20.956Z,6.12
2017-12-13T01:40:48.463Z,5.82
2017-12-13T01:43:16.011Z,4.95
2017-12-13T01:45:43.526Z,7.20
2017-12-13T01:48:11.023Z,6.00
2017-12-13T01:50:38.551Z,5.90
2017-12-13T01:53:06.074Z,5.43
2017-12-13T01:55:33.635Z,7.20
2017-12-13T01:58:01.147Z,7.55
2017-12-13T02:00:28.646Z,6.97
2017-12-13T02:02:56.938Z,7.10
2017-12-13T02:05:24.863Z,6.95
2017-12-13T02:07:52.365Z,7.70
2017-12-13T02:10:19.899Z,7.80
2017-12-13T02:12:47.415Z,7.55
2017-12-13T02:15:14.927Z,6.70
2017-12-13T02:17:42.509Z,7.37
2017-12-13T02:20:10.020Z,7.72
2017-12-13T02:22:37.526Z,8.40
2017-12-13T02:25:05.184Z,6.30
2017-12-13T02:27:32.687Z,6.95
2017-12-13T02:30:00.582Z,6.18
2017-12-13T02:32:28.819Z,6.53
2017-12-13T02:34:56.338Z,7.07
2017-12-13T02:37:24.579Z,6.65
2017-12-13T02:40:03.732Z,6.62
2017-12-13T02:42:31.247Z,6.53
2017-12-13T02:44:58.746Z,7.03
2017-12-13T02:47:26.308Z,6.82
2017-12-13T02:49:53.826Z,10.85
2017-12-13T02:52:22.102Z,15.77
2017-12-13T02:54:50.443Z,18.33
2017-12-13T02:57:20.199Z,18.12
2017-12-13T02:59:47.734Z,11.12
2017-12-13T03:02:16.068Z,9.85
2017-12-13T03:04:43.575Z,7.93
2017-12-13T03:07:11.083Z,6.57
2017-12-13T03:09:38.650Z,6.80
2017-12-13T03:12:06.154Z,8.23
2017-12-13T03:14:33.715Z,6.50
2017-12-13T03:17:01.929Z,6.22
2017-12-13T03:19:29.885Z,6.68
2017-12-13T03:21:58.167Z,7.53
2017-12-13T03:24:25.973Z,6.75
2017-12-13T03:26:53.823Z,7.53
2017-12-13T03:29:21.327Z,6.22
2017-12-13T03:31:49.630Z,6.97
2017-12-13T03:34:17.927Z,7.03
2017-12-13T03:36:46.199Z,7.25
2017-12-13T03:39:14.019Z,6.10
2017-12-13T03:41:41.755Z,6.75
2017-12-13T03:44:09.258Z,7.05
2017-12-13T03:46:37.078Z,7.75
2017-12-13T03:49:04.621Z,8.57
2017-12-13T03:51:32.126Z,8.00
2017-12-13T03:53:59.673Z,7.22
2017-12-13T03:56:28.138Z,7.32
2017-12-13T03:58:55.638Z,6.75
2017-12-13T04:01:23.973Z,9.05
2017-12-13T04:03:51.470Z,7.57
2017-12-13T04:06:19.261Z,6.82
2017-12-13T04:08:46.830Z,7.53
2017-12-13T04:11:14.974Z,8.85
2017-12-13T04:13:42.483Z,7.78
2017-12-13T04:16:10.095Z,6.85
2017-12-13T04:18:37.581Z,6.72
2017-12-13T04:21:05.082Z,7.75
2017-12-13T04:23:33.409Z,7.37
2017-12-13T04:26:01.359Z,7.35
2017-12-13T04:28:28.866Z,8.15
2017-12-13T04:33:31.124Z,9.38
2017-12-13T04:35:58.703Z,6.32
2017-12-13T04:38:26.626Z,7.70
2017-12-13T04:40:54.211Z,8.63
2017-12-13T04:43:21.768Z,8.40
2017-12-13T04:45:49.274Z,7.28
2017-12-13T04:48:16.797Z,8.10
2017-12-13T04:50:44.365Z,8.35
2017-12-13T04:53:11.874Z,6.85
2017-12-13T04:55:39.869Z,6.22
2017-12-13T04:58:07.759Z,7.32
2017-12-13T05:00:35.268Z,6.85
2017-12-13T05:03:03.547Z,7.50
2017-12-13T05:05:31.891Z,6.15
2017-12-13T05:08:00.902Z,6.35
2017-12-13T05:10:29.173Z,6.97
2017-12-13T05:12:57.022Z,7.30
2017-12-13T05:15:24.593Z,8.63
2017-12-13T05:17:52.064Z,9.07
2017-12-13T05:20:19.767Z,7.35
2017-12-13T05:22:47.310Z,7.90
2017-12-13T05:25:14.828Z,7.60
2017-12-13T05:27:42.386Z,7.45
2017-12-13T05:30:10.000Z,8.85
2017-12-13T05:32:37.808Z,7.35
2017-12-13T05:35:05.354Z,8.95
2017-12-13T05:37:32.905Z,7.28
2017-12-13T05:40:01.178Z,7.15
2017-12-13T05:42:28.732Z,10.13
2017-12-13T05:44:56.251Z,8.38
2017-12-13T05:47:23.774Z,8.65
2017-12-13T05:49:51.396Z,9.45
2017-12-13T05:52:18.903Z,8.60
2017-12-13T05:54:46.838Z,9.15
2017-12-13T05:57:15.182Z,10.52
2017-12-13T05:59:43.588Z,9.73
2017-12-13T06:02:11.169Z,10.05
2017-12-13T06:04:38.979Z,10.48
2017-12-13T06:07:08.255Z,11.18
2017-12-13T06:09:36.707Z,10.98
2017-12-13T06:12:04.918Z,11.40
2017-12-13T06:14:33.247Z,10.45
2017-12-13T06:17:01.276Z,12.10
2017-12-13T06:19:28.851Z,11.95
2017-12-13T06:21:56.350Z,14.15
2017-12-13T06:24:25.262Z,12.68
2017-12-13T06:26:53.815Z,10.98
2017-12-13T06:29:21.353Z,10.90
2017-12-13T06:31:49.079Z,10.95
2017-12-13T06:34:17.067Z,9.65
2017-12-13T06:36:44.579Z,13.13
2017-12-13T06:39:12.082Z,11.43
2017-12-13T06:41:40.439Z,9.55
2017-12-13T06:44:09.303Z,8.70
2017-12-13T06:46:38.522Z,8.90
2017-12-13T06:49:06.472Z,8.05
2017-12-13T06:51:34.217Z,11.12
2017-12-13T06:54:02.017Z,10.68
2017-12-13T06:56:30.640Z,9.07
2017-12-13T06:58:58.251Z,8.93
2017-12-13T07:01:26.330Z,9.52
2017-12-13T07:03:54.124Z,10.80
2017-12-13T07:06:21.672Z,13.10
2017-12-13T07:08:49.262Z,11.90
2017-12-13T07:11:17.877Z,12.45
2017-12-13T07:13:46.155Z,10.48
2017-12-13T07:16:13.889Z,10.15
2017-12-13T07:18:42.734Z,12.18
2017-12-13T07:21:10.266Z,18.27
2017-12-13T07:23:37.779Z,12.20
2017-12-13T07:26:05.339Z,13.45
2017-12-13T07:28:33.619Z,12.43
2017-12-13T07:31:01.130Z,12.30
2017-12-13T07:33:28.680Z,9.68
2017-12-13T07:35:56.694Z,9.57
2017-12-13T07:38:24.518Z,10.23
2017-12-13T07:40:52.838Z,12.55
2017-12-13T07:43:20.411Z,11.85
2017-12-13T07:45:48.743Z,10.45
2017-12-13T07:48:16.289Z,10.02
2017-12-13T07:50:43.807Z,10.65
2017-12-13T07:53:12.024Z,8.38
2017-12-13T07:55:39.898Z,16.83
2017-12-13T07:58:07.531Z,17.90
2017-12-13T08:00:36.326Z,19.65
2017-12-13T08:03:03.840Z,16.05
2017-12-13T08:05:31.639Z,16.05
2017-12-13T08:08:00.798Z,17.30
2017-12-13T08:10:28.720Z,18.62
2017-12-13T08:12:56.736Z,23.60
2017-12-13T08:15:24.485Z,23.70
2017-12-13T08:17:53.028Z,20.83
2017-12-13T08:20:20.627Z,18.67
2017-12-13T08:22:48.140Z,13.02
2017-12-13T08:25:16.039Z,11.35
2017-12-13T08:27:44.653Z,11.85
2017-12-13T08:30:12.950Z,10.35
2017-12-13T08:32:40.495Z,11.55
2017-12-13T08:35:08.195Z,11.40
2017-12-13T08:37:35.722Z,11.85
2017-12-13T08:40:03.226Z,8.52
2017-12-13T08:42:31.325Z,9.23
2017-12-13T08:44:58.835Z,10.45
2017-12-13T08:47:26.334Z,9.25
2017-12-13T08:49:53.903Z,10.68
2017-12-13T08:52:21.600Z,7.82
2017-12-13T08:54:49.924Z,7.45
2017-12-13T08:57:19.032Z,8.55
2017-12-13T08:59:47.298Z,8.18
2017-12-13T09:02:14.847Z,9.15
2017-12-13T09:04:43.792Z,7.68
2017-12-13T09:07:11.342Z,7.65
2017-12-13T09:09:38.859Z,8.85
2017-12-13T09:12:07.911Z,7.25
2017-12-13T09:14:35.492Z,7.50
2017-12-13T09:17:03.270Z,9.27
2017-12-13T09:19:30.867Z,8.85
2017-12-13T09:21:58.390Z,7.40
2017-12-13T09:24:25.992Z,7.40
2017-12-13T09:26:53.559Z,6.45
2017-12-13T09:29:21.081Z,7.75
2017-12-13T09:31:48.580Z,5.65
2017-12-13T09:34:16.147Z,6.22
2017-12-13T09:36:43.763Z,5.05
2017-12-13T09:39:11.271Z,6.32
2017-12-13T09:41:38.980Z,7.72
2017-12-13T09:44:06.655Z,7.50
2017-12-13T09:46:34.155Z,7.65
2017-12-13T09:49:01.735Z,7.22
2017-12-13T09:51:29.247Z,7.97
2017-12-13T09:53:56.763Z,7.85
2017-12-13T09:56:24.327Z,7.45
2017-12-13T09:58:52.009Z,7.65
2017-12-13T10:01:19.527Z,8.32
2017-12-13T10:03:47.097Z,8.00
2017-12-13T10:06:14.619Z,7.40
2017-12-13T10:08:42.707Z,6.12
2017-12-13T10:11:11.139Z,6.40
2017-12-13T10:13:38.654Z,5.97
2017-12-13T10:16:06.167Z,8.38
2017-12-13T10:18:33.763Z,7.00
2017-12-13T10:21:02.087Z,8.10
2017-12-13T10:23:29.603Z,7.47
2017-12-13T10:25:57.171Z,10.13
2017-12-13T10:28:24.771Z,6.60
2017-12-13T10:30:52.283Z,6.55
2017-12-13T10:33:20.155Z,3.27
2017-12-13T10:35:48.423Z,3.20
2017-12-13T10:38:16.694Z,3.75
2017-12-13T10:40:44.251Z,4.07
2017-12-13T10:43:15.586Z,3.83
2017-12-13T10:45:43.101Z,3.60
2017-12-13T10:48:10.751Z,3.70
2017-12-13T10:50:38.476Z,2.77
2017-12-13T10:53:05.975Z,3.20
2017-12-13T10:55:33.523Z,3.10
2017-12-13T10:58:01.019Z,2.90
2017-12-13T11:00:28.515Z,3.27
2017-12-13T11:02:56.067Z,3.33
2017-12-13T11:05:23.966Z,3.17
2017-12-13T11:07:51.467Z,3.00
2017-12-13T11:10:19.058Z,3.33
2017-12-13T11:12:46.559Z,2.83
2017-12-13T11:15:14.062Z,3.43
2017-12-13T11:17:41.615Z,4.50
2017-12-13T11:20:09.287Z,2.50
2017-12-13T11:22:37.567Z,3.80
2017-12-13T11:25:05.078Z,2.90
2017-12-13T11:27:32.578Z,2.10
2017-12-13T11:30:00.754Z,2.80
2017-12-13T11:32:28.250Z,3.00
2017-12-13T11:34:57.102Z,2.77
2017-12-13T11:37:24.674Z,2.93
2017-12-13T11:39:52.173Z,2.87
2017-12-13T11:42:19.667Z,2.73
2017-12-13T11:44:47.222Z,3.10
2017-12-13T11:47:14.719Z,2.20
2017-12-13T11:49:42.982Z,2.57
2017-12-13T11:52:10.539Z,2.77
2017-12-13T11:54:38.824Z,2.40
2017-12-13T11:57:06.343Z,3.30
2017-12-13T11:59:33.882Z,2.97
2017-12-13T12:02:01.375Z,2.60
2017-12-13T12:04:28.870Z,3.23
2017-12-13T12:06:56.427Z,3.93
2017-12-13T12:09:24.704Z,2.83
2017-12-13T12:11:52.208Z,3.37
2017-12-13T12:14:19.761Z,4.00
2017-12-13T12:16:47.300Z,3.57
2017-12-13T12:19:15.563Z,3.10
2017-12-13T12:21:43.907Z,2.97
2017-12-13T12:24:11.622Z,3.30
2017-12-13T12:26:39.142Z,2.70
2017-12-13T12:29:06.703Z,3.53
2017-12-13T12:31:34.198Z,2.97
2017-12-13T12:34:01.698Z,2.90
2017-12-13T12:36:29.241Z,2.60
2017-12-13T12:38:56.743Z,2.40
2017-12-13T12:41:24.234Z,2.87
2017-12-13T12:43:51.792Z,3.70
2017-12-13T12:46:19.304Z,3.50
2017-12-13T12:48:48.319Z,3.40
2017-12-13T12:51:23.571Z,3.60
2017-12-13T12:53:51.071Z,2.80
2017-12-13T12:56:18.568Z,4.20
2017-12-13T12:58:46.110Z,3.77
2017-12-13T13:01:13.603Z,3.97
2017-12-13T13:03:41.592Z,4.00
2017-12-13T13:06:09.138Z,4.27
2017-12-13T13:08:37.400Z,4.00
2017-12-13T13:11:04.894Z,3.90
2017-12-13T13:13:32.473Z,4.20
2017-12-13T13:15:59.970Z,5.80
2017-12-13T13:18:27.975Z,5.07
2017-12-13T13:20:56.057Z,3.87
2017-12-13T13:23:24.319Z,3.93
2017-12-13T13:25:51.820Z,4.60
2017-12-13T13:28:19.363Z,4.07
2017-12-13T13:30:46.901Z,5.70
2017-12-13T13:33:14.405Z,4.83
2017-12-13T13:35:41.965Z,4.17
2017-12-13T13:38:09.509Z,5.23
2017-12-13T13:40:37.015Z,4.40
2017-12-13T13:43:04.579Z,4.90
2017-12-13T13:45:32.455Z,4.30
2017-12-13T13:47:59.992Z,4.10
2017-12-13T13:50:27.547Z,3.57
2017-12-13T13:52:55.050Z,4.10
2017-12-13T13:55:22.608Z,4.97
2017-12-13T13:57:50.435Z,4.10
2017-12-13T14:00:18.106Z,4.17
2017-12-13T14:02:45.635Z,4.27
2017-12-13T14:05:13.759Z,4.77
2017-12-13T14:07:41.252Z,3.97
2017-12-13T14:10:08.813Z,8.17
2017-12-13T14:12:36.420Z,7.20
2017-12-13T14:15:03.965Z,5.70
2017-12-13T14:17:31.897Z,4.30
2017-12-13T14:19:59.451Z,4.20
2017-12-13T14:22:26.951Z,3.47
2017-12-13T14:24:54.508Z,4.30
2017-12-13T14:27:22.055Z,4.60
2017-12-13T14:29:49.604Z,4.27
2017-12-13T14:32:17.145Z,4.80
2017-12-13T14:34:45.305Z,4.93
2017-12-13T14:37:12.974Z,4.47
2017-12-13T14:39:40.475Z,4.57
2017-12-13T14:42:08.102Z,4.20
2017-12-13T14:44:35.603Z,4.23
2017-12-13T14:47:03.917Z,5.13
2017-12-13T14:49:31.466Z,4.40
2017-12-13T14:51:59.595Z,4.10
2017-12-13T14:54:27.137Z,4.47
2017-12-13T14:56:54.689Z,4.13
2017-12-13T14:59:22.799Z,3.80
2017-12-13T15:01:50.304Z,4.70
2017-12-13T15:04:18.369Z,4.67
2017-12-13T15:06:45.862Z,4.33
2017-12-13T15:09:13.367Z,4.40
2017-12-13T15:11:40.939Z,4.20
2017-12-13T15:14:08.477Z,4.57
2017-12-13T15:16:36.087Z,4.37
2017-12-13T15:19:03.802Z,4.67
2017-12-13T15:21:31.340Z,5.70
2017-12-13T15:23:58.892Z,6.40
2017-12-13T15:26:26.434Z,5.50
2017-12-13T15:28:53.939Z,4.57
2017-12-13T15:31:21.430Z,4.27
2017-12-13T15:33:49.005Z,4.30
2017-12-13T15:36:16.499Z,4.20
2017-12-13T15:38:43.996Z,3.60
2017-12-13T15:41:11.571Z,5.00
2017-12-13T15:43:39.078Z,3.90
2017-12-13T15:46:06.628Z,4.30
2017-12-13T15:48:34.944Z,3.83
2017-12-13T15:51:04.281Z,3.20
2017-12-13T15:53:31.781Z,3.30
2017-12-13T15:55:59.326Z,2.77
2017-12-13T15:58:26.827Z,2.87
2017-12-13T16:00:54.368Z,4.07
2017-12-13T16:03:21.914Z,3.13
2017-12-13T16:05:49.449Z,2.60
2017-12-13T16:08:16.951Z,3.10
2017-12-13T16:10:45.122Z,2.60
2017-12-13T16:13:12.681Z,2.60
2017-12-13T16:15:40.993Z,2.40
2017-12-13T16:18:09.454Z,3.20
2017-12-13T16:20:37.074Z,2.40
2017-12-13T16:23:04.575Z,2.80
2017-12-13T16:25:32.173Z,2.17
2017-12-13T16:28:00.195Z,1.70
2017-12-13T16:30:27.762Z,2.37
2017-12-13T16:32:55.677Z,2.07
2017-12-13T16:35:23.223Z,2.67
2017-12-13T16:37:50.762Z,2.20
2017-12-13T16:40:18.341Z,2.40
2017-12-13T16:42:45.846Z,2.23
2017-12-13T16:45:13.343Z,3.00
2017-12-13T16:47:40.937Z,3.07
2017-12-13T16:50:09.012Z,1.93
2017-12-13T16:52:36.515Z,1.90
2017-12-13T16:55:04.063Z,1.80
2017-12-13T16:57:31.604Z,1.93
2017-12-13T16:59:59.157Z,2.03
2017-12-13T17:02:26.776Z,4.10
2017-12-13T17:04:55.075Z,4.90
2017-12-13T17:07:22.570Z,3.20
2017-12-13T17:09:50.304Z,2.90
2017-12-13T17:12:17.856Z,2.97
2017-12-13T17:14:45.408Z,3.43
2017-12-13T17:17:12.993Z,3.30
2017-12-13T17:19:40.505Z,2.60
2017-12-13T17:22:08.054Z,2.70
2017-12-13T17:24:35.598Z,3.63
2017-12-13T17:27:04.065Z,3.43
2017-12-13T17:29:32.144Z,2.27
2017-12-13T17:31:59.870Z,3.03
2017-12-13T17:34:27.359Z,2.87
2017-12-13T17:36:56.068Z,2.20
2017-12-13T17:39:24.225Z,2.60
2017-12-13T17:41:51.778Z,2.93
2017-12-13T17:44:20.051Z,3.03
2017-12-13T17:46:47.602Z,2.50
2017-12-13T17:49:15.099Z,2.03
2017-12-13T17:51:43.157Z,2.80
2017-12-13T17:54:10.718Z,2.73
2017-12-13T17:56:39.034Z,1.57
2017-12-13T17:59:06.804Z,2.70
2017-12-13T18:01:34.479Z,2.40
2017-12-13T18:04:02.025Z,4.23
2017-12-13T18:06:29.636Z,1.97
2017-12-13T18:08:57.903Z,2.30
2017-12-13T18:11:25.445Z,3.93
2017-12-13T18:13:52.994Z,1.77
2017-12-13T18:16:20.533Z,3.67
2017-12-13T18:18:48.036Z,3.10
2017-12-13T18:21:15.590Z,2.23
2017-12-13T18:23:43.145Z,2.37
2017-12-13T18:26:11.077Z,2.10
2017-12-13T18:28:38.637Z,1.53
2017-12-13T18:31:06.178Z,2.00
2017-12-13T18:33:34.084Z,1.83
2017-12-13T18:36:01.584Z,2.33
2017-12-13T18:38:30.118Z,1.40
2017-12-13T18:58:02.675Z,6.40
2017-12-13T19:01:32.904Z,6.00
2017-12-13T19:09:29.525Z,3.30
2017-12-13T19:11:57.887Z,2.47
2017-12-13T19:14:26.230Z,2.00
2017-12-13T19:16:54.575Z,2.20
2017-12-13T19:19:23.146Z,2.30
2017-12-13T19:21:51.499Z,2.00
2017-12-13T19:24:19.907Z,1.87
2017-12-13T19:26:48.247Z,2.47
2017-12-13T19:29:16.585Z,2.37
2017-12-13T19:31:46.330Z,2.03
2017-12-13T19:34:15.441Z,3.17
2017-12-13T19:36:44.170Z,2.27
2017-12-13T19:39:12.971Z,2.30
2017-12-13T19:41:42.494Z,2.87
2017-12-13T19:44:10.888Z,1.97
2017-12-13T19:46:40.811Z,1.97
2017-12-13T19:49:09.331Z,1.90
2017-12-13T19:51:39.114Z,6.10
2017-12-13T19:54:08.336Z,3.20
2017-12-13T19:56:37.436Z,2.77
2017-12-13T19:59:06.008Z,3.00
2017-12-13T20:01:35.172Z,4.17
2017-12-13T20:04:04.180Z,3.73
2017-12-13T20:06:33.206Z,3.83
2017-12-13T20:09:01.558Z,2.63
2017-12-13T20:11:29.904Z,3.37
2017-12-13T20:13:59.262Z,2.97
2017-12-13T20:16:27.619Z,3.37
2017-12-13T20:18:55.918Z,2.50
2017-12-13T20:21:24.747Z,2.70
2017-12-13T20:23:52.990Z,2.90
2017-12-13T20:26:21.370Z,2.10
2017-12-13T20:28:49.765Z,2.30
2017-12-13T20:31:18.118Z,1.57
2017-12-13T20:33:46.835Z,1.70
2017-12-13T20:36:16.005Z,1.27
2017-12-13T20:38:44.350Z,1.30
2017-12-13T20:41:13.198Z,1.40
2017-12-13T20:43:41.560Z,1.10
2017-12-13T20:46:10.080Z,1.63
2017-12-13T20:48:39.241Z,1.40
2017-12-13T20:51:07.591Z,1.43
2017-12-13T20:53:35.888Z,1.40
2017-12-13T20:56:04.288Z,1.20
2017-12-13T20:58:32.635Z,0.90
2017-12-13T21:01:00.992Z,1.20
2017-12-13T21:03:29.868Z,1.10
2017-12-13T21:05:58.210Z,1.10
2017-12-13T21:08:26.555Z,1.23
2017-12-13T21:10:55.213Z,1.43
2017-12-13T21:13:23.574Z,1.10
2017-12-13T21:15:51.949Z,1.57
2017-12-13T21:18:20.315Z,1.20
2017-12-13T21:20:49.960Z,1.10
2017-12-13T21:23:19.051Z,1.50
2017-12-13T21:25:47.544Z,1.27
2017-12-13T21:28:16.624Z,1.20
2017-12-13T21:30:46.516Z,2.27
2017-12-13T21:33:14.894Z,1.50
2017-12-13T21:35:45.099Z,1.20
2017-12-13T21:38:14.432Z,1.00
2017-12-13T21:40:42.787Z,1.50
2017-12-13T21:43:11.183Z,0.83
2017-12-13T21:45:39.488Z,0.83
2017-12-13T21:48:07.834Z,1.10
2017-12-13T21:50:37.555Z,1.00
2017-12-13T21:53:06.376Z,1.20
2017-12-13T21:55:34.841Z,1.00
2017-12-13T21:58:03.642Z,1.30
2017-12-13T22:00:32.017Z,1.40
2017-12-13T22:03:01.237Z,1.00
2017-12-13T22:05:29.783Z,1.10
2017-12-13T22:08:00.497Z,1.23
2017-12-13T22:10:28.834Z,1.40
2017-12-13T22:12:58.013Z,1.30
2017-12-13T22:15:26.678Z,1.03
2017-12-13T22:17:55.137Z,1.00
2017-12-13T22:20:23.478Z,1.00
2017-12-13T22:22:51.911Z,0.80
2017-12-13T22:25:20.789Z,0.90
2017-12-13T22:27:49.127Z,0.90
2017-12-13T22:30:17.518Z,0.70
2017-12-13T22:32:45.866Z,0.90
2017-12-13T22:35:14.264Z,1.20
2017-12-13T22:37:42.677Z,0.90
2017-12-13T22:40:11.170Z,1.20
2017-12-13T22:42:39.481Z,0.93
2017-12-13T22:45:07.832Z,0.80
2017-12-13T22:47:36.129Z,1.00
2017-12-13T22:50:04.486Z,0.90
2017-12-13T22:52:33.506Z,0.70
2017-12-13T22:55:02.328Z,0.80
2017-12-13T22:57:30.680Z,0.90
2017-12-13T22:59:59.103Z,1.10
2017-12-13T23:02:27.446Z,0.93
2017-12-13T23:04:55.786Z,0.80
2017-12-13T23:07:24.829Z,1.30
2017-12-13T23:09:53.910Z,0.77
2017-12-13T23:12:22.263Z,0.77
2017-12-13T23:14:50.612Z,0.80
2017-12-13T23:17:19.709Z,0.70
2017-12-13T23:19:48.012Z,0.80
2017-12-13T23:22:16.364Z,0.90
2017-12-13T23:24:44.673Z,0.70
2017-12-13T23:27:12.983Z,0.70
2017-12-13T23:29:41.343Z,0.90
2017-12-13T23:32:09.647Z,0.70
2017-12-13T23:34:37.957Z,0.60
2017-12-13T23:37:06.328Z,0.80
2017-12-13T23:39:34.637Z,0.80
2017-12-13T23:42:02.932Z,0.70
2017-12-13T23:44:31.462Z,0.80
2017-12-13T23:46:59.762Z,0.80
2017-12-13T23:49:28.070Z,0.90
2017-12-13T23:51:56.424Z,0.70
2017-12-13T23:54:24.732Z,0.70
2017-12-13T23:56:54.558Z,0.90
2017-12-13T23:59:22.908Z,0.90
